Main page
METAR-TAF:

METAR-TAF

Airports :

Córdoba, Spain

Córdoba Airport

latitude: 37-51N, longitude: 004-51W, elevation: 90 m

Current weather observation

The report was made 39 minutes ago, at 01:30 UTC
Wind 1 kt from variable directions
Temperature 17°C
Humidity 88%
Pressure 1017 hPa
Visibility 10 km or more

METAR: LEBA 290130Z AUTO VRB01KT 9999 FEW022/// 17/15 Q1017

Time: 04:09 (02:09 UTC)

Forecast

The report was made 9 hours and 9 minutes ago, at 17:00 UTC
Forecast valid from 28 at 18 UTC to 29 at 03 UTC
Wind 9 kt from the West/Southwest
Visibility 10 km or more
Few clouds at a height of 4500 ft

TAF: LEBA 281700Z 2818/2903 24009KT 9999 FEW045

Weather observations and forecasts of more than 4000 airports (METAR and TAF reports).

The available stations are represented by yellow and red dots on the map.

Hover mouse over dot to see the name of the station.

Then click to see weather observations and forecasts.

To change the map : click on the green buttons with a black cross to zoom in, on the green button with a dash to zoom out, or on the green arrows for adjacent maps.


METAR-TAF: